Time,TemperatureF,DewpointF,PressureIn,WindDirection,WindDirectionDegrees,WindSpeedMPH,WindSpeedGustMPH,Humidity,HourlyPrecipIn,Conditions,Clouds,dailyrainin,SolarRadiationWatts/m^2,SoftwareType,DateUTC
2013-03-12 00:00:00,36.4,22.2,30.06,WNW,287,0.0,0.0,56,0.00,,CLR,0.00,0.00,VWS V14.01,2013-03-12 05:00:00,
2013-03-12 00:05:00,36.3,22.1,30.06,WNW,287,0.0,0.0,56,0.00,,CLR,0.00,0.00,VWS V14.01,2013-03-12 05:05:00,
2013-03-12 00:10:00,36.1,21.9,30.06,WNW,287,0.0,0.0,56,0.00,,CLR,0.00,0.00,VWS V14.01,2013-03-12 05:10:00,
2013-03-12 00:15:00,36.0,21.8,30.07,WNW,287,0.0,0.0,56,0.00,,CLR,0.00,0.00,VWS V14.01,2013-03-12 05:15:00,
2013-03-12 00:20:00,36.0,22.3,30.07,WNW,287,0.0,0.0,57,0.00,,CLR,0.00,0.00,VWS V14.01,2013-03-12 05:20:00,
2013-03-12 00:25:00,35.8,22.5,30.07,WNW,287,0.0,0.0,58,0.00,,CLR,0.00,0.00,VWS V14.01,2013-03-12 05:25:00,
2013-03-12 00:30:00,35.7,23.2,30.08,WNW,287,0.0,0.0,60,0.00,,CLR,0.00,0.00,VWS V14.01,2013-03-12 05:30:00,
2013-03-12 00:35:00,35.5,22.6,30.08,WNW,287,0.0,0.0,59,0.00,,CLR,0.00,0.00,VWS V14.01,2013-03-12 05:35:00,
2013-03-12 00:40:00,35.4,22.5,30.08,WNW,287,0.0,0.0,59,0.00,,CLR,0.00,0.00,VWS V14.01,2013-03-12 05:40:00,
2013-03-12 00:45:00,35.3,22.4,30.08,WNW,287,0.0,0.0,59,0.00,,CLR,0.00,0.00,VWS V14.01,2013-03-12 05:45:00,
2013-03-12 00:50:00,35.1,22.6,30.08,WNW,287,0.0,0.0,60,0.00,,CLR,0.00,0.00,VWS V14.01,2013-03-12 05:50:00,
2013-03-12 00:55:00,35.0,22.5,30.08,WNW,287,0.0,0.0,60,0.00,,CLR,0.00,0.00,VWS V14.01,2013-03-12 05:55:00,
2013-03-12 01:00:00,34.8,22.3,30.09,WNW,287,0.0,0.0,60,0.00,,CLR,0.00,0.00,VWS V14.01,2013-03-12 06:00:00,
2013-03-12 01:05:00,34.7,22.2,30.09,WNW,287,0.0,0.0,60,0.00,,CLR,0.00,0.00,VWS V14.01,2013-03-12 06:05:00,
2013-03-12 01:10:00,34.5,22.8,30.09,WNW,287,0.0,0.0,62,0.00,,CLR,0.00,0.00,VWS V14.01,2013-03-12 06:10:00,
2013-03-12 01:15:00,34.4,22.7,30.09,WNW,287,0.0,0.0,62,0.00,,CLR,0.00,0.00,VWS V14.01,2013-03-12 06:15:00,
2013-03-12 01:20:00,34.3,22.6,30.09,WNW,287,0.0,0.0,62,0.00,,CLR,0.00,0.00,VWS V14.01,2013-03-12 06:20:00,
2013-03-12 01:25:00,34.3,23.0,30.09,WNW,287,0.0,0.0,63,0.00,,CLR,0.00,0.00,VWS V14.01,2013-03-12 06:25:00,
2013-03-12 01:30:00,34.1,23.6,30.08,WNW,287,0.0,0.0,65,0.00,,CLR,0.00,0.00,VWS V14.01,2013-03-12 06:30:00,
2013-03-12 01:35:00,34.0,24.2,30.08,WNW,287,0.0,0.0,67,0.00,,CLR,0.00,0.00,VWS V14.01,2013-03-12 06:35:00,
2013-03-12 01:40:00,33.8,24.0,30.08,WNW,287,0.0,0.0,67,0.00,,CLR,0.00,0.00,VWS V14.01,2013-03-12 06:40:00,
2013-03-12 01:45:00,33.8,24.0,30.08,WNW,287,0.0,0.0,67,0.00,,CLR,0.00,0.00,VWS V14.01,2013-03-12 06:45:00,
2013-03-12 01:50:00,33.8,24.0,30.08,WNW,287,0.0,0.0,67,0.00,,CLR,0.00,0.00,VWS V14.01,2013-03-12 06:50:00,
2013-03-12 01:55:00,33.8,24.0,30.08,WNW,287,0.0,0.0,67,0.00,,CLR,0.00,0.00,VWS V14.01,2013-03-12 06:55:00,
2013-03-12 02:00:00,33.8,24.0,30.09,WNW,287,0.0,0.0,67,0.00,,CLR,0.00,0.00,VWS V14.01,2013-03-12 07:00:00,
2013-03-12 02:05:00,33.8,24.4,30.09,WNW,287,0.0,0.0,68,0.00,,CLR,0.00,0.00,VWS V14.01,2013-03-12 07:05:00,
2013-03-12 02:10:00,34.0,24.2,30.09,WNW,289,0.0,0.0,67,0.00,,CLR,0.00,0.00,VWS V14.01,2013-03-12 07:10:00,
2013-03-12 02:15:00,34.5,23.6,30.09,WNW,294,0.0,0.0,64,0.00,,CLR,0.00,0.00,VWS V14.01,2013-03-12 07:15:00,
2013-03-12 02:20:00,35.0,22.5,30.09,WNW,298,0.0,0.0,60,0.00,,CLR,0.00,0.00,VWS V14.01,2013-03-12 07:20:00,
2013-03-12 02:25:00,35.7,22.4,30.09,WNW,298,0.0,0.0,58,0.00,,CLR,0.00,0.00,VWS V14.01,2013-03-12 07:25:00,
2013-03-12 02:30:00,36.3,22.1,30.08,WNW,298,0.0,0.0,56,0.00,,CLR,0.00,0.00,VWS V14.01,2013-03-12 07:30:00,
2013-03-12 02:35:00,36.7,22.1,30.08,WNW,298,0.0,0.0,55,0.00,,CLR,0.00,0.00,VWS V14.01,2013-03-12 07:35:00,
2013-03-12 02:40:00,37.0,21.9,30.08,WNW,298,0.0,0.0,54,0.00,,CLR,0.00,0.00,VWS V14.01,2013-03-12 07:40:00,
2013-03-12 02:45:00,37.3,21.8,30.09,WNW,298,0.0,0.0,53,0.00,,CLR,0.00,0.00,VWS V14.01,2013-03-12 07:45:00,
2013-03-12 02:50:00,37.6,22.5,30.09,WNW,298,0.0,0.0,54,0.00,,CLR,0.00,0.00,VWS V14.01,2013-03-12 07:50:00,
2013-03-12 02:55:00,37.7,23.0,30.09,WNW,298,0.0,0.0,55,0.00,,CLR,0.00,0.00,VWS V14.01,2013-03-12 07:55:00,
2013-03-12 03:00:00,38.0,23.7,30.09,WNW,298,0.0,0.0,56,0.00,,CLR,0.00,0.00,VWS V14.01,2013-03-12 08:00:00,
2013-03-12 03:05:00,38.0,23.7,30.09,WNW,298,0.0,0.0,56,0.00,,CLR,0.00,0.00,VWS V14.01,2013-03-12 08:05:00,
2013-03-12 03:10:00,38.1,23.8,30.09,WNW,298,0.0,0.0,56,0.00,,CLR,0.00,0.00,VWS V14.01,2013-03-12 08:10:00,
2013-03-12 03:15:00,38.1,23.8,30.10,WNW,295,0.0,0.0,56,0.00,,CLR,0.00,0.00,VWS V14.01,2013-03-12 08:15:00,
2013-03-12 03:20:00,38.0,23.3,30.10,WNW,292,0.0,0.0,55,0.00,,CLR,0.00,0.00,VWS V14.01,2013-03-12 08:20:00,
2013-03-12 03:25:00,38.0,23.3,30.10,WNW,292,0.0,0.0,55,0.00,,CLR,0.00,0.00,VWS V14.01,2013-03-12 08:25:00,
2013-03-12 03:30:00,38.0,23.3,30.12,WNW,292,0.0,0.0,55,0.00,,CLR,0.00,0.00,VWS V14.01,2013-03-12 08:30:00,
2013-03-12 03:35:00,38.0,23.7,30.12,WNW,292,0.0,0.0,56,0.00,,CLR,0.00,0.00,VWS V14.01,2013-03-12 08:35:00,
2013-03-12 03:40:00,38.0,23.7,30.12,WNW,292,0.0,0.0,56,0.00,,CLR,0.00,0.00,VWS V14.01,2013-03-12 08:40:00,
2013-03-12 03:45:00,37.8,23.5,30.12,WNW,292,0.0,0.0,56,0.00,,CLR,0.00,0.00,VWS V14.01,2013-03-12 08:45:00,
2013-03-12 03:50:00,37.8,23.5,30.12,WNW,292,0.0,0.0,56,0.00,,CLR,0.00,0.00,VWS V14.01,2013-03-12 08:50:00,
2013-03-12 03:55:00,37.7,23.4,30.12,WNW,292,0.0,0.0,56,0.00,,CLR,0.00,0.00,VWS V14.01,2013-03-12 08:55:00,
2013-03-12 04:00:00,37.6,23.3,30.12,WNW,292,0.0,0.0,56,0.00,,CLR,0.00,0.00,VWS V14.01,2013-03-12 09:00:00,
2013-03-12 04:05:00,37.4,23.6,30.12,WNW,292,0.0,0.0,57,0.00,,CLR,0.00,0.00,VWS V14.01,2013-03-12 09:05:00,
2013-03-12 04:10:00,37.1,23.3,30.12,WNW,292,0.0,0.0,57,0.00,,CLR,0.00,0.00,VWS V14.01,2013-03-12 09:10:00,
2013-03-12 04:15:00,37.0,23.6,30.12,WNW,292,0.0,0.0,58,0.00,,CLR,0.00,0.00,VWS V14.01,2013-03-12 09:15:00,
2013-03-12 04:20:00,36.8,23.8,30.12,WNW,292,0.0,0.0,59,0.00,,CLR,0.00,0.00,VWS V14.01,2013-03-12 09:20:00,
2013-03-12 04:25:00,36.7,24.1,30.12,WNW,292,0.0,0.0,60,0.00,,CLR,0.00,0.00,VWS V14.01,2013-03-12 09:25:00,
2013-03-12 04:30:00,36.5,24.0,30.14,WNW,292,0.0,0.0,60,0.00,,CLR,0.00,0.00,VWS V14.01,2013-03-12 09:30:00,
2013-03-12 04:35:00,36.4,23.9,30.14,WNW,292,0.0,0.0,60,0.00,,CLR,0.00,0.00,VWS V14.01,2013-03-12 09:35:00,
2013-03-12 04:40:00,36.3,23.8,30.14,WNW,292,0.0,0.0,60,0.00,,CLR,0.00,0.00,VWS V14.01,2013-03-12 09:40:00,
2013-03-12 04:45:00,36.3,23.8,30.15,WNW,292,0.0,0.0,60,0.00,,CLR,0.00,0.00,VWS V14.01,2013-03-12 09:45:00,
2013-03-12 04:50:00,36.4,23.5,30.15,WNW,292,0.0,0.0,59,0.00,,CLR,0.00,0.00,VWS V14.01,2013-03-12 09:50:00,
2013-03-12 04:55:00,36.4,23.5,30.15,WNW,292,0.0,0.0,59,0.00,,CLR,0.00,0.00,VWS V14.01,2013-03-12 09:55:00,
2013-03-12 05:00:00,36.4,23.5,30.15,WNW,292,0.0,0.0,59,0.00,,CLR,0.00,0.00,VWS V14.01,2013-03-12 10:00:00,
2013-03-12 05:05:00,36.5,23.1,30.15,WNW,292,0.0,0.0,58,0.00,,CLR,0.00,0.00,VWS V14.01,2013-03-12 10:05:00,
2013-03-12 05:10:00,36.5,23.1,30.15,WNW,292,0.0,0.0,58,0.00,,CLR,0.00,0.00,VWS V14.01,2013-03-12 10:10:00,
2013-03-12 05:15:00,36.7,23.7,30.16,WNW,292,0.0,0.0,59,0.00,,CLR,0.00,0.00,VWS V14.01,2013-03-12 10:15:00,
2013-03-12 05:20:00,36.7,23.7,30.16,WNW,292,0.0,0.0,59,0.00,,CLR,0.00,0.00,VWS V14.01,2013-03-12 10:20:00,
2013-03-12 05:25:00,36.8,23.8,30.16,WNW,292,0.0,0.0,59,0.00,,CLR,0.00,0.00,VWS V14.01,2013-03-12 10:25:00,
2013-03-12 05:30:00,36.8,24.2,30.18,WNW,292,0.0,0.0,60,0.00,,CLR,0.00,0.00,VWS V14.01,2013-03-12 10:30:00,
2013-03-12 05:35:00,37.0,24.4,30.18,WNW,292,0.0,0.0,60,0.00,,CLR,0.00,0.00,VWS V14.01,2013-03-12 10:35:00,
2013-03-12 05:40:00,37.0,24.8,30.18,WNW,292,0.0,0.0,61,0.00,,CLR,0.00,0.00,VWS V14.01,2013-03-12 10:40:00,
2013-03-12 05:45:00,37.0,24.8,30.18,WNW,292,0.0,0.0,61,0.00,,CLR,0.00,0.00,VWS V14.01,2013-03-12 10:45:00,
2013-03-12 05:50:00,37.0,24.8,30.18,WNW,292,0.0,0.0,61,0.00,,CLR,0.00,0.00,VWS V14.01,2013-03-12 10:50:00,
2013-03-12 05:55:00,37.0,24.8,30.18,WNW,292,0.0,0.0,61,0.00,,CLR,0.00,0.00,VWS V14.01,2013-03-12 10:55:00,
2013-03-12 06:00:00,37.1,24.9,30.18,WNW,292,0.0,0.0,61,0.00,,CLR,0.00,0.00,VWS V14.01,2013-03-12 11:00:00,
2013-03-12 06:05:00,37.3,25.5,30.18,WNW,292,0.0,0.0,62,0.00,,CLR,0.00,0.00,VWS V14.01,2013-03-12 11:05:00,
2013-03-12 06:10:00,37.3,25.5,30.18,WNW,292,0.0,0.0,62,0.00,,CLR,0.00,0.00,VWS V14.01,2013-03-12 11:10:00,
2013-03-12 06:15:00,37.4,25.6,30.18,WNW,292,0.0,0.0,62,0.00,,CLR,0.00,0.00,VWS V14.01,2013-03-12 11:15:00,
2013-03-12 06:20:00,37.4,25.6,30.18,WNW,292,0.0,0.0,62,0.00,,CLR,0.00,0.00,VWS V14.01,2013-03-12 11:20:00,
2013-03-12 06:25:00,37.6,25.8,30.18,WNW,292,0.0,0.0,62,0.00,,CLR,0.00,0.00,VWS V14.01,2013-03-12 11:25:00,
2013-03-12 06:30:00,37.6,25.8,30.19,WNW,292,0.0,0.0,62,0.00,,CLR,0.00,0.00,VWS V14.01,2013-03-12 11:30:00,
2013-03-12 06:35:00,37.6,25.8,30.19,WNW,292,0.0,0.0,62,0.00,,CLR,0.00,0.00,VWS V14.01,2013-03-12 11:35:00,
2013-03-12 06:40:00,37.6,25.8,30.19,WNW,292,0.0,0.0,62,0.00,,CLR,0.00,0.00,VWS V14.01,2013-03-12 11:40:00,
2013-03-12 06:45:00,37.6,25.8,30.19,WNW,292,0.0,0.0,62,0.00,,CLR,0.00,0.00,VWS V14.01,2013-03-12 11:45:00,
2013-03-12 06:50:00,37.6,25.8,30.19,WNW,292,0.0,0.0,62,0.00,,CLR,0.00,0.00,VWS V14.01,2013-03-12 11:50:00,
2013-03-12 06:55:00,37.6,26.2,30.19,WNW,292,0.0,0.0,63,0.00,,CLR,0.00,0.00,VWS V14.01,2013-03-12 11:55:00,
2013-03-12 07:00:00,37.6,26.2,30.19,WNW,292,0.0,0.0,63,0.00,,CLR,0.00,0.00,VWS V14.01,2013-03-12 12:00:00,
2013-03-12 07:05:00,37.4,26.4,30.19,WNW,292,0.0,0.0,64,0.00,,CLR,0.00,0.00,VWS V14.01,2013-03-12 12:05:00,
2013-03-12 07:10:00,37.4,26.4,30.19,WNW,292,0.0,0.0,64,0.00,,CLR,0.00,0.00,VWS V14.01,2013-03-12 12:10:00,
2013-03-12 07:15:00,37.4,26.4,30.20,WNW,292,0.0,0.0,64,0.00,,CLR,0.00,0.00,VWS V14.01,2013-03-12 12:15:00,
2013-03-12 07:20:00,37.4,26.4,30.20,WNW,292,0.0,0.0,64,0.00,,CLR,0.00,0.00,VWS V14.01,2013-03-12 12:20:00,
2013-03-12 07:25:00,37.4,26.7,30.20,WNW,292,0.0,0.0,65,0.00,,CLR,0.00,0.00,VWS V14.01,2013-03-12 12:25:00,
2013-03-12 07:30:00,37.4,26.7,30.20,WNW,292,0.0,0.0,65,0.00,,CLR,0.00,0.00,VWS V14.01,2013-03-12 12:30:00,
2013-03-12 07:35:00,37.4,27.1,30.20,WNW,292,0.0,0.0,66,0.00,,CLR,0.00,0.00,VWS V14.01,2013-03-12 12:35:00,
2013-03-12 07:40:00,37.4,27.1,30.20,WNW,292,0.0,0.0,66,0.00,,CLR,0.00,0.00,VWS V14.01,2013-03-12 12:40:00,
2013-03-12 07:45:00,37.4,27.1,30.21,WNW,292,0.0,0.0,66,0.00,,CLR,0.00,0.00,VWS V14.01,2013-03-12 12:45:00,
2013-03-12 07:50:00,37.6,27.6,30.21,WNW,292,0.0,0.0,67,0.00,,CLR,0.00,8.05,VWS V14.01,2013-03-12 12:50:00,
2013-03-12 07:55:00,37.6,28.0,30.21,WNW,292,0.0,0.0,68,0.00,,CLR,0.00,21.85,VWS V14.01,2013-03-12 12:55:00,
2013-03-12 08:00:00,37.8,28.6,30.21,WNW,292,0.0,0.0,69,0.00,,CLR,0.00,10.35,VWS V14.01,2013-03-12 13:00:00,
2013-03-12 08:05:00,37.8,28.6,30.21,WNW,292,0.0,0.0,69,0.00,,CLR,0.00,13.80,VWS V14.01,2013-03-12 13:05:00,
2013-03-12 08:10:00,38.1,28.8,30.21,WNW,292,0.0,0.0,69,0.00,,CLR,0.00,29.90,VWS V14.01,2013-03-12 13:10:00,
2013-03-12 08:15:00,38.3,29.4,30.22,WNW,292,0.0,0.0,70,0.00,,CLR,0.00,36.80,VWS V14.01,2013-03-12 13:15:00,
2013-03-12 08:20:00,38.3,29.0,30.22,WNW,292,0.0,0.0,69,0.00,,CLR,0.00,64.40,VWS V14.01,2013-03-12 13:20:00,
2013-03-12 08:25:00,38.4,29.5,30.22,WNW,292,0.0,0.0,70,0.00,,CLR,0.00,74.75,VWS V14.01,2013-03-12 13:25:00,
2013-03-12 08:30:00,38.6,29.7,30.22,WNW,292,0.0,0.0,70,0.00,,CLR,0.00,48.30,VWS V14.01,2013-03-12 13:30:00,
2013-03-12 08:35:00,38.7,29.8,30.22,WNW,292,0.0,0.0,70,0.00,,CLR,0.00,93.15,VWS V14.01,2013-03-12 13:35:00,
2013-03-12 08:40:00,39.0,29.7,30.22,WNW,292,0.0,0.0,69,0.00,,CLR,0.00,52.90,VWS V14.01,2013-03-12 13:40:00,
2013-03-12 08:45:00,39.1,29.5,30.23,WNW,292,0.0,0.0,68,0.00,,CLR,0.00,48.30,VWS V14.01,2013-03-12 13:45:00,
2013-03-12 08:50:00,39.4,29.7,30.23,WNW,292,0.0,0.0,68,0.00,,CLR,0.00,109.25,VWS V14.01,2013-03-12 13:50:00,
2013-03-12 08:55:00,39.7,30.0,30.23,WNW,292,0.0,0.0,68,0.00,,CLR,0.00,54.05,VWS V14.01,2013-03-12 13:55:00,
2013-03-12 09:00:00,40.0,30.3,30.25,WNW,292,0.0,0.0,68,0.00,,CLR,0.00,87.40,VWS V14.01,2013-03-12 14:00:00,
2013-03-12 09:05:00,40.3,30.2,30.25,WNW,292,0.0,0.0,67,0.00,,-RA,0.00,79.35,VWS V14.01,2013-03-12 14:05:00,
2013-03-12 09:10:00,40.4,30.3,30.25,WNW,292,0.0,0.0,67,0.00,,-RA,0.00,127.65,VWS V14.01,2013-03-12 14:10:00,
2013-03-12 09:15:00,40.8,30.7,30.26,WNW,292,0.0,0.0,67,0.00,,-RA,0.00,87.40,VWS V14.01,2013-03-12 14:15:00,
2013-03-12 09:20:00,41.3,31.2,30.26,WNW,292,0.0,0.0,67,0.00,,-RA,0.00,151.80,VWS V14.01,2013-03-12 14:20:00,
2013-03-12 09:24:00,42.3,31.8,30.26,WNW,292,0.0,0.0,66,0.00,,-RA,0.00,154.10,VWS V14.01,2013-03-12 14:24:00,
2013-03-12 09:29:00,43.1,32.5,30.25,WNW,292,0.0,0.0,66,0.00,,-RA,0.00,331.20,VWS V14.01,2013-03-12 14:29:00,
2013-03-12 09:35:00,43.6,32.6,30.25,WNW,292,0.0,0.0,65,0.00,,-RA,0.00,220.80,VWS V14.01,2013-03-12 14:35:00,
2013-03-12 09:40:00,43.7,33.8,30.25,WNW,292,0.0,0.0,68,0.00,,-RA,0.00,186.30,VWS V14.01,2013-03-12 14:40:00,
2013-03-12 09:45:00,43.9,34.8,30.25,WNW,292,0.0,0.0,70,0.00,,-RA,0.00,210.45,VWS V14.01,2013-03-12 14:45:00,
2013-03-12 09:50:00,44.3,35.2,30.25,WNW,294,0.0,0.0,70,0.00,,-RA,0.00,264.50,VWS V14.01,2013-03-12 14:50:00,
2013-03-12 09:55:00,44.9,36.1,30.25,WNW,294,0.0,0.0,71,0.00,,-RA,0.00,404.80,VWS V14.01,2013-03-12 14:55:00,
2013-03-12 10:00:00,45.3,36.1,30.26,WNW,300,0.0,0.0,70,0.00,,-RA,0.00,248.40,VWS V14.01,2013-03-12 15:00:00,
2013-03-12 10:05:00,46.1,36.9,30.26,WNW,300,0.0,0.0,70,0.00,,-RA,0.00,530.15,VWS V14.01,2013-03-12 15:05:00,
2013-03-12 10:10:00,46.4,37.2,30.26,NW,305,0.0,0.0,70,0.00,,-RA,0.00,320.85,VWS V14.01,2013-03-12 15:10:00,
2013-03-12 10:15:00,47.3,37.3,30.26,NW,306,0.0,0.0,68,0.00,,-RA,0.00,224.25,VWS V14.01,2013-03-12 15:15:00,
2013-03-12 10:20:00,47.9,37.5,30.26,NW,306,0.0,0.0,67,0.00,,-RA,0.00,517.50,VWS V14.01,2013-03-12 15:20:00,
2013-03-12 10:25:00,48.3,36.7,30.26,NW,317,0.0,0.0,64,0.00,,-RA,0.00,547.40,VWS V14.01,2013-03-12 15:25:00,
2013-03-12 10:30:00,48.3,35.9,30.26,NW,323,0.0,0.0,62,0.00,,-RA,0.00,186.30,VWS V14.01,2013-03-12 15:30:00,
2013-03-12 10:35:00,48.7,35.9,30.26,NNW,338,0.0,0.0,61,0.00,,-RA,0.00,546.25,VWS V14.01,2013-03-12 15:35:00,
2013-03-12 10:40:00,49.2,35.1,30.26,NNW,339,0.0,0.0,58,0.00,,-RA,0.00,549.70,VWS V14.01,2013-03-12 15:40:00,
2013-03-12 10:45:00,49.3,34.7,30.27,NNW,339,0.0,0.0,57,0.00,,-RA,0.00,549.70,VWS V14.01,2013-03-12 15:45:00,
2013-03-12 10:50:00,49.8,34.8,30.27,North,355,0.0,0.0,56,0.00,,-RA,0.00,610.65,VWS V14.01,2013-03-12 15:50:00,
2013-03-12 10:55:00,50.5,34.0,30.27,NNE,12,0.0,0.0,53,0.00,,-RA,0.00,650.90,VWS V14.01,2013-03-12 15:55:00,
2013-03-12 11:00:00,50.2,31.3,30.28,North,5,1.0,5.0,48,0.00,,-RA,0.00,667.00,VWS V14.01,2013-03-12 16:00:00,
2013-03-12 11:05:00,50.1,30.1,30.28,North,5,0.0,5.0,46,0.00,,OVC085,0.00,671.60,VWS V14.01,2013-03-12 16:05:00,
2013-03-12 11:10:00,50.7,30.7,30.28,North,10,0.0,6.0,46,0.00,,OVC085,0.00,647.45,VWS V14.01,2013-03-12 16:10:00,
2013-03-12 11:15:00,51.1,30.0,30.28,NNE,19,1.0,6.0,44,0.00,,OVC085,0.00,671.60,VWS V14.01,2013-03-12 16:15:00,
2013-03-12 11:20:00,51.1,31.6,30.28,NNE,19,2.0,5.0,47,0.00,,OVC085,0.00,531.30,VWS V14.01,2013-03-12 16:20:00,
2013-03-12 11:25:00,51.4,32.4,30.28,NNE,22,0.0,4.0,48,0.00,,OVC085,0.00,531.30,VWS V14.01,2013-03-12 16:25:00,
2013-03-12 11:30:00,51.6,33.1,30.28,NNE,15,1.0,4.0,49,0.00,,OVC085,0.00,730.25,VWS V14.01,2013-03-12 16:30:00,
2013-03-12 11:35:00,51.6,34.6,30.28,NNE,16,0.0,7.0,52,0.00,,OVC085,0.00,722.20,VWS V14.01,2013-03-12 16:35:00,
2013-03-12 11:40:00,52.3,33.2,30.28,NNE,19,2.0,4.0,48,0.00,,OVC085,0.00,703.80,VWS V14.01,2013-03-12 16:40:00,
2013-03-12 11:45:00,52.3,33.2,30.28,NNE,14,1.0,4.0,48,0.00,,OVC085,0.00,669.30,VWS V14.01,2013-03-12 16:45:00,
2013-03-12 11:50:00,51.8,33.3,30.28,North,355,0.0,5.0,49,0.00,,OVC085,0.00,752.10,VWS V14.01,2013-03-12 16:50:00,
2013-03-12 11:55:00,52.1,32.5,30.28,North,360,0.0,5.0,47,0.00,,OVC085,0.00,695.75,VWS V14.01,2013-03-12 16:55:00,
2013-03-12 12:00:00,52.3,32.7,30.28,North,11,3.0,3.0,47,0.00,,OVC085,0.00,717.60,VWS V14.01,2013-03-12 17:00:00,
2013-03-12 12:05:00,52.4,33.3,30.28,North,11,0.0,3.0,48,0.00,,CLR,0.00,780.85,VWS V14.01,2013-03-12 17:05:00,
2013-03-12 12:10:00,53.3,34.7,30.28,North,11,0.0,0.0,49,0.00,,CLR,0.00,794.65,VWS V14.01,2013-03-12 17:10:00,
2013-03-12 12:15:00,53.6,34.4,30.28,NNE,20,4.0,6.0,48,0.00,,CLR,0.00,679.65,VWS V14.01,2013-03-12 17:15:00,
2013-03-12 12:20:00,53.5,34.8,30.28,NNE,18,3.0,6.0,49,0.00,,CLR,0.00,861.35,VWS V14.01,2013-03-12 17:20:00,
2013-03-12 12:25:00,53.5,34.3,30.28,NW,326,0.0,8.0,48,0.00,,CLR,0.00,816.50,VWS V14.01,2013-03-12 17:25:00,
2013-03-12 12:30:00,53.8,35.1,30.28,NW,323,1.0,3.0,49,0.00,,CLR,0.00,840.65,VWS V14.01,2013-03-12 17:30:00,
2013-03-12 12:35:00,54.1,34.9,30.28,NNW,342,2.0,9.0,48,0.00,,CLR,0.00,859.05,VWS V14.01,2013-03-12 17:35:00,
2013-03-12 12:40:00,54.4,34.1,30.28,NNE,26,3.0,5.0,46,0.00,,CLR,0.00,847.55,VWS V14.01,2013-03-12 17:40:00,
2013-03-12 12:45:00,54.4,33.0,30.27,NNE,19,6.0,14.0,44,0.00,,CLR,0.00,853.30,VWS V14.01,2013-03-12 17:45:00,
2013-03-12 12:50:00,54.2,33.3,30.27,NNE,15,1.0,9.0,45,0.00,,CLR,0.00,675.05,VWS V14.01,2013-03-12 17:50:00,
2013-03-12 12:55:00,54.2,32.2,30.27,NNW,329,5.0,6.0,43,0.00,,CLR,0.00,864.80,VWS V14.01,2013-03-12 17:55:00,
2013-03-12 13:00:00,54.7,32.7,30.28,NNE,24,1.0,6.0,43,0.00,,CLR,0.00,788.90,VWS V14.01,2013-03-12 18:00:00,
2013-03-12 13:05:00,55.0,31.8,30.28,North,355,2.0,9.0,41,0.00,,CLR,0.00,855.60,VWS V14.01,2013-03-12 18:05:00,
2013-03-12 13:10:00,54.7,32.1,30.28,NNE,26,6.0,10.0,42,0.00,,CLR,0.00,832.60,VWS V14.01,2013-03-12 18:10:00,
2013-03-12 13:15:00,55.0,32.3,30.28,NW,313,3.0,9.0,42,0.00,,CLR,0.00,909.65,VWS V14.01,2013-03-12 18:15:00,
2013-03-12 13:20:00,55.1,31.8,30.28,NNW,344,0.0,4.0,41,0.00,,CLR,0.00,928.05,VWS V14.01,2013-03-12 18:20:00,
2013-03-12 13:25:00,55.1,31.2,30.28,North,355,1.0,7.0,40,0.00,,CLR,0.00,847.55,VWS V14.01,2013-03-12 18:25:00,
2013-03-12 13:30:00,54.8,31.0,30.27,NW,325,0.0,5.0,40,0.00,,CLR,0.00,834.90,VWS V14.01,2013-03-12 18:30:00,
2013-03-12 13:35:00,55.4,31.5,30.27,NNE,18,0.0,7.0,40,0.00,,CLR,0.00,808.45,VWS V14.01,2013-03-12 18:35:00,
2013-03-12 13:40:00,55.5,31.6,30.27,NW,324,2.0,6.0,40,0.00,,CLR,0.00,842.95,VWS V14.01,2013-03-12 18:40:00,
2013-03-12 13:45:00,55.8,31.9,30.27,NNW,343,3.0,6.0,40,0.00,,CLR,0.00,722.20,VWS V14.01,2013-03-12 18:45:00,
2013-03-12 13:50:00,55.5,32.2,30.27,North,10,2.0,7.0,41,0.00,,CLR,0.00,808.45,VWS V14.01,2013-03-12 18:50:00,
2013-03-12 13:55:00,55.2,31.3,30.27,NNW,335,0.0,9.0,40,0.00,,CLR,0.00,754.40,VWS V14.01,2013-03-12 18:55:00,
2013-03-12 14:00:00,55.2,31.3,30.27,NW,308,0.0,5.0,40,0.00,,CLR,0.00,647.45,VWS V14.01,2013-03-12 19:00:00,
2013-03-12 14:05:00,55.7,32.4,30.27,NW,325,4.0,9.0,41,0.00,,CLR,0.00,719.90,VWS V14.01,2013-03-12 19:05:00,
2013-03-12 14:10:00,55.7,32.4,30.27,WNW,300,2.0,11.0,41,0.00,,CLR,0.00,830.30,VWS V14.01,2013-03-12 19:10:00,
2013-03-12 14:15:00,55.7,30.5,30.27,North,350,4.0,11.0,38,0.00,,CLR,0.00,840.65,VWS V14.01,2013-03-12 19:15:00,
2013-03-12 14:20:00,56.1,31.5,30.27,NNE,12,4.0,7.0,39,0.00,,CLR,0.00,805.00,VWS V14.01,2013-03-12 19:20:00,
2013-03-12 14:25:00,56.3,30.4,30.27,NNE,13,2.0,10.0,37,0.00,,CLR,0.00,744.05,VWS V14.01,2013-03-12 19:25:00,
2013-03-12 14:30:00,56.5,31.2,30.26,North,360,0.0,5.0,38,0.00,,CLR,0.00,629.05,VWS V14.01,2013-03-12 19:30:00,
2013-03-12 14:35:00,56.8,31.5,30.26,NNE,22,3.0,5.0,38,0.00,,CLR,0.00,813.05,VWS V14.01,2013-03-12 19:35:00,
2013-03-12 14:40:00,56.1,30.9,30.26,North,355,0.0,7.0,38,0.00,,CLR,0.00,656.65,VWS V14.01,2013-03-12 19:40:00,
2013-03-12 14:45:00,56.0,30.8,30.25,NNW,336,0.0,6.0,38,0.00,,CLR,0.00,642.85,VWS V14.01,2013-03-12 19:45:00,
2013-03-12 14:50:00,56.6,30.6,30.25,NNE,13,0.0,12.0,37,0.00,,CLR,0.00,596.85,VWS V14.01,2013-03-12 19:50:00,
2013-03-12 14:55:00,56.5,29.9,30.25,NNW,342,0.0,7.0,36,0.00,,CLR,0.00,685.40,VWS V14.01,2013-03-12 19:55:00,
2013-03-12 15:00:00,56.0,30.1,30.25,NW,308,0.0,6.0,37,0.00,,CLR,0.00,622.15,VWS V14.01,2013-03-12 20:00:00,
2013-03-12 15:05:00,56.1,30.2,30.25,NW,322,0.0,6.0,37,0.00,,FEW050,0.00,683.10,VWS V14.01,2013-03-12 20:05:00,
2013-03-12 15:10:00,56.5,31.2,30.25,NNW,334,0.0,5.0,38,0.00,,FEW050,0.00,612.95,VWS V14.01,2013-03-12 20:10:00,
2013-03-12 15:15:00,56.3,29.7,30.25,NW,319,5.0,5.0,36,0.00,,FEW050,0.00,570.40,VWS V14.01,2013-03-12 20:15:00,
2013-03-12 15:20:00,56.6,29.3,30.25,NNE,19,4.0,11.0,35,0.00,,FEW050,0.00,573.85,VWS V14.01,2013-03-12 20:20:00,
2013-03-12 15:25:00,57.2,29.8,30.25,North,5,3.0,9.0,35,0.00,,FEW050,0.00,647.45,VWS V14.01,2013-03-12 20:25:00,
2013-03-12 15:30:00,56.8,30.1,30.25,NNW,334,1.0,4.0,36,0.00,,FEW050,0.00,570.40,VWS V14.01,2013-03-12 20:30:00,
2013-03-12 15:35:00,56.9,30.2,30.25,NNE,28,3.0,7.0,36,0.00,,FEW050,0.00,535.90,VWS V14.01,2013-03-12 20:35:00,
2013-03-12 15:40:00,57.4,30.7,30.25,NNE,17,0.0,6.0,36,0.00,,FEW050,0.00,579.60,VWS V14.01,2013-03-12 20:40:00,
2013-03-12 15:45:00,57.4,29.3,30.25,NW,325,0.0,11.0,34,0.00,,FEW050,0.00,596.85,VWS V14.01,2013-03-12 20:45:00,
2013-03-12 15:50:00,57.7,30.3,30.25,WNW,297,0.0,5.0,35,0.00,,FEW050,0.00,557.75,VWS V14.01,2013-03-12 20:50:00,
2013-03-12 15:55:00,58.0,29.8,30.25,NNW,344,5.0,11.0,34,0.00,,FEW050,0.00,604.90,VWS V14.01,2013-03-12 20:55:00,
2013-03-12 16:00:00,57.8,29.6,30.24,NW,312,1.0,11.0,34,0.00,,FEW050,0.00,562.35,VWS V14.01,2013-03-12 21:00:00,
2013-03-12 16:05:00,58.1,29.2,30.24,NW,319,0.0,9.0,33,0.00,,CLR,0.00,501.40,VWS V14.01,2013-03-12 21:05:00,
2013-03-12 16:10:00,58.0,28.3,30.24,NW,316,6.0,10.0,32,0.00,,CLR,0.00,565.80,VWS V14.01,2013-03-12 21:10:00,
2013-03-12 16:15:00,58.0,29.1,30.24,North,355,5.0,8.0,33,0.00,,CLR,0.00,557.75,VWS V14.01,2013-03-12 21:15:00,
2013-03-12 16:20:00,58.3,28.6,30.24,NW,319,0.0,4.0,32,0.00,,CLR,0.00,589.95,VWS V14.01,2013-03-12 21:20:00,
2013-03-12 16:25:00,58.6,27.3,30.24,NNE,25,9.0,10.0,30,0.00,,CLR,0.00,512.90,VWS V14.01,2013-03-12 21:25:00,
2013-03-12 16:30:00,58.6,27.3,30.24,NW,314,6.0,10.0,30,0.00,,CLR,0.00,586.50,VWS V14.01,2013-03-12 21:30:00,
2013-03-12 16:35:00,58.6,26.5,30.24,NNW,338,6.0,7.0,29,0.00,,CLR,0.00,418.60,VWS V14.01,2013-03-12 21:35:00,
2013-03-12 16:40:00,58.3,26.2,30.24,North,355,4.0,12.0,29,0.00,,CLR,0.00,392.15,VWS V14.01,2013-03-12 21:40:00,
2013-03-12 16:45:00,58.0,26.0,30.24,North,355,1.0,9.0,29,0.00,,CLR,0.00,410.55,VWS V14.01,2013-03-12 21:45:00,
2013-03-12 16:50:00,57.8,25.8,30.24,North,355,3.0,12.0,29,0.00,,CLR,0.00,416.30,VWS V14.01,2013-03-12 21:50:00,
2013-03-12 16:55:00,57.5,25.5,30.24,North,350,2.0,6.0,29,0.00,,CLR,0.00,434.70,VWS V14.01,2013-03-12 21:55:00,
2013-03-12 17:00:00,57.5,26.3,30.24,NNW,348,2.0,13.0,30,0.00,,CLR,0.00,246.10,VWS V14.01,2013-03-12 22:00:00,
2013-03-12 17:05:00,57.7,26.5,30.24,NW,325,3.0,7.0,30,0.00,,CLR,0.00,338.10,VWS V14.01,2013-03-12 22:05:00,
2013-03-12 17:10:00,57.7,25.7,30.24,NW,318,6.0,11.0,29,0.00,,CLR,0.00,432.40,VWS V14.01,2013-03-12 22:10:00,
2013-03-12 17:15:00,57.8,25.8,30.24,NW,321,7.0,13.0,29,0.00,,CLR,0.00,418.60,VWS V14.01,2013-03-12 22:15:00,
2013-03-12 17:20:00,57.8,25.8,30.24,NW,319,1.0,13.0,29,0.00,,CLR,0.00,408.25,VWS V14.01,2013-03-12 22:20:00,
2013-03-12 17:25:00,58.0,26.8,30.24,North,360,0.0,11.0,30,0.00,,CLR,0.00,388.70,VWS V14.01,2013-03-12 22:25:00,
2013-03-12 17:30:00,57.8,25.8,30.23,NNW,347,5.0,11.0,29,0.00,,CLR,0.00,365.70,VWS V14.01,2013-03-12 22:30:00,
2013-03-12 17:35:00,58.0,26.0,30.23,NNW,343,2.0,14.0,29,0.00,,CLR,0.00,341.55,VWS V14.01,2013-03-12 22:35:00,
2013-03-12 17:40:00,58.0,26.0,30.23,NNW,329,0.0,10.0,29,0.00,,CLR,0.00,325.45,VWS V14.01,2013-03-12 22:40:00,
2013-03-12 17:45:00,58.0,26.0,30.24,NNW,339,4.0,8.0,29,0.00,,CLR,0.00,307.05,VWS V14.01,2013-03-12 22:45:00,
2013-03-12 17:50:00,57.8,25.8,30.24,NNW,336,3.0,10.0,29,0.00,,CLR,0.00,288.65,VWS V14.01,2013-03-12 22:50:00,
2013-03-12 17:55:00,57.7,26.5,30.24,NNW,345,5.0,12.0,30,0.00,,CLR,0.00,271.40,VWS V14.01,2013-03-12 22:55:00,
2013-03-12 18:00:00,57.7,26.5,30.23,North,5,4.0,7.0,30,0.00,,CLR,0.00,246.10,VWS V14.01,2013-03-12 23:00:00,
2013-03-12 18:05:00,57.5,27.1,30.23,NNW,329,0.0,15.0,31,0.00,,CLR,0.00,228.85,VWS V14.01,2013-03-12 23:05:00,
2013-03-12 18:10:00,57.2,26.1,30.23,NNW,331,1.0,10.0,30,0.00,,CLR,0.00,210.45,VWS V14.01,2013-03-12 23:10:00,
2013-03-12 18:15:00,57.2,26.1,30.24,NNW,342,5.0,13.0,30,0.00,,CLR,0.00,192.05,VWS V14.01,2013-03-12 23:15:00,
2013-03-12 18:20:00,57.2,26.1,30.24,NNW,336,10.0,11.0,30,0.00,,CLR,0.00,159.85,VWS V14.01,2013-03-12 23:20:00,
2013-03-12 18:25:00,57.1,26.0,30.24,NNW,333,5.0,11.0,30,0.00,,CLR,0.00,141.45,VWS V14.01,2013-03-12 23:25:00,
2013-03-12 18:30:00,56.9,25.8,30.24,North,351,2.0,10.0,30,0.00,,CLR,0.00,106.95,VWS V14.01,2013-03-12 23:30:00,
2013-03-12 18:35:00,56.8,26.5,30.24,North,355,5.0,14.0,31,0.00,,CLR,0.00,111.55,VWS V14.01,2013-03-12 23:35:00,
2013-03-12 18:40:00,56.5,26.2,30.24,North,355,2.0,15.0,31,0.00,,CLR,0.00,103.50,VWS V14.01,2013-03-12 23:40:00,
2013-03-12 18:45:00,56.3,26.8,30.24,NW,313,2.0,12.0,32,0.00,,CLR,0.00,69.00,VWS V14.01,2013-03-12 23:45:00,
2013-03-12 18:50:00,56.1,25.9,30.24,NNW,328,7.0,14.0,31,0.00,,CLR,0.00,56.35,VWS V14.01,2013-03-12 23:50:00,
2013-03-12 18:55:00,56.0,25.8,30.24,NW,322,4.0,13.0,31,0.00,,CLR,0.00,50.60,VWS V14.01,2013-03-12 23:55:00,
2013-03-12 19:00:00,55.7,24.8,30.25,NW,324,3.0,10.0,30,0.00,,CLR,0.00,40.25,VWS V14.01,2013-03-13 00:00:00,
2013-03-12 19:05:00,55.4,24.5,30.25,NNW,327,7.0,7.0,30,0.00,,CLR,0.00,29.90,VWS V14.01,2013-03-13 00:05:00,
2013-03-12 19:10:00,55.2,24.3,30.25,NNW,338,1.0,11.0,30,0.00,,CLR,0.00,18.40,VWS V14.01,2013-03-13 00:10:00,
2013-03-12 19:15:00,55.0,24.9,30.26,North,350,6.0,12.0,31,0.00,,CLR,0.00,13.80,VWS V14.01,2013-03-13 00:15:00,
2013-03-12 19:20:00,54.7,25.4,30.26,NW,319,0.0,7.0,32,0.00,,CLR,0.00,10.35,VWS V14.01,2013-03-13 00:20:00,
2013-03-12 19:25:00,54.4,25.9,30.26,NNW,328,4.0,11.0,33,0.00,,CLR,0.00,8.05,VWS V14.01,2013-03-13 00:25:00,
2013-03-12 19:30:00,54.1,25.6,30.27,NW,317,0.0,6.0,33,0.00,,CLR,0.00,0.00,VWS V14.01,2013-03-13 00:30:00,
2013-03-12 19:35:00,53.8,25.4,30.27,NNW,329,4.0,6.0,33,0.00,,CLR,0.00,0.00,VWS V14.01,2013-03-13 00:35:00,
2013-03-12 19:40:00,53.6,25.2,30.27,NNW,329,2.0,6.0,33,0.00,,CLR,0.00,0.00,VWS V14.01,2013-03-13 00:40:00,
2013-03-12 19:45:00,53.3,25.0,30.27,NNW,341,0.0,5.0,33,0.00,,CLR,0.00,0.00,VWS V14.01,2013-03-13 00:45:00,
2013-03-12 19:50:00,53.2,24.9,30.27,NW,321,2.0,6.0,33,0.00,,CLR,0.00,0.00,VWS V14.01,2013-03-13 00:50:00,
2013-03-12 19:55:00,53.0,25.4,30.27,WNW,302,9.0,9.0,34,0.00,,CLR,0.00,0.00,VWS V14.01,2013-03-13 00:55:00,
2013-03-12 20:00:00,52.9,25.3,30.28,North,355,0.0,10.0,34,0.00,,CLR,0.00,0.00,VWS V14.01,2013-03-13 01:00:00,
2013-03-12 20:05:00,52.6,25.8,30.28,NW,317,2.0,6.0,35,0.00,,CLR,0.00,0.00,VWS V14.01,2013-03-13 01:05:00,
2013-03-12 20:10:00,52.4,26.2,30.28,NW,326,3.0,7.0,36,0.00,,CLR,0.00,0.00,VWS V14.01,2013-03-13 01:10:00,
2013-03-12 20:15:00,52.3,26.2,30.29,NW,314,4.0,4.0,36,0.00,,CLR,0.00,0.00,VWS V14.01,2013-03-13 01:15:00,
2013-03-12 20:20:00,52.0,25.9,30.29,NNW,344,0.0,4.0,36,0.00,,CLR,0.00,0.00,VWS V14.01,2013-03-13 01:20:00,
2013-03-12 20:25:00,52.0,25.9,30.29,North,5,1.0,9.0,36,0.00,,CLR,0.00,0.00,VWS V14.01,2013-03-13 01:25:00,
2013-03-12 20:30:00,51.6,25.5,30.30,NNE,13,2.0,9.0,36,0.00,,CLR,0.00,0.00,VWS V14.01,2013-03-13 01:30:00,
2013-03-12 20:35:00,51.3,25.9,30.30,NNE,24,4.0,11.0,37,0.00,,CLR,0.00,0.00,VWS V14.01,2013-03-13 01:35:00,
2013-03-12 20:40:00,51.0,26.3,30.30,NNE,12,2.0,9.0,38,0.00,,CLR,0.00,0.00,VWS V14.01,2013-03-13 01:40:00,
2013-03-12 20:45:00,50.7,26.0,30.31,NNE,32,0.0,6.0,38,0.00,,CLR,0.00,0.00,VWS V14.01,2013-03-13 01:45:00,
2013-03-12 20:50:00,50.2,26.2,30.31,NNE,25,0.0,7.0,39,0.00,,CLR,0.00,0.00,VWS V14.01,2013-03-13 01:50:00,
2013-03-12 20:55:00,49.8,26.5,30.31,NNE,30,2.0,4.0,40,0.00,,CLR,0.00,0.00,VWS V14.01,2013-03-13 01:55:00,
2013-03-12 21:00:00,49.5,26.2,30.32,NNE,28,0.0,3.0,40,0.00,,CLR,0.00,0.00,VWS V14.01,2013-03-13 02:00:00,
2013-03-12 21:05:00,49.2,26.5,30.32,NE,34,0.0,5.0,41,0.00,,CLR,0.00,0.00,VWS V14.01,2013-03-13 02:05:00,
2013-03-12 21:10:00,48.9,26.2,30.32,NNE,23,0.0,7.0,41,0.00,,CLR,0.00,0.00,VWS V14.01,2013-03-13 02:10:00,
2013-03-12 21:15:00,48.6,26.0,30.32,NNE,22,0.0,4.0,41,0.00,,CLR,0.00,0.00,VWS V14.01,2013-03-13 02:15:00,
2013-03-12 21:20:00,48.3,26.3,30.32,NNE,22,2.0,5.0,42,0.00,,CLR,0.00,0.00,VWS V14.01,2013-03-13 02:20:00,
2013-03-12 21:25:00,48.1,26.1,30.32,NNE,23,0.0,5.0,42,0.00,,CLR,0.00,0.00,VWS V14.01,2013-03-13 02:25:00,
2013-03-12 21:30:00,47.9,25.9,30.33,NNE,22,0.0,2.0,42,0.00,,CLR,0.00,0.00,VWS V14.01,2013-03-13 02:30:00,
2013-03-12 21:35:00,47.7,26.3,30.33,NNE,22,0.0,3.0,43,0.00,,CLR,0.00,0.00,VWS V14.01,2013-03-13 02:35:00,
2013-03-12 21:40:00,47.4,26.0,30.33,NNE,22,0.0,2.0,43,0.00,,CLR,0.00,0.00,VWS V14.01,2013-03-13 02:40:00,
2013-03-12 21:45:00,47.1,26.3,30.34,NNE,31,0.0,6.0,44,0.00,,CLR,0.00,0.00,VWS V14.01,2013-03-13 02:45:00,
2013-03-12 21:50:00,47.0,26.2,30.34,NNE,22,1.0,10.0,44,0.00,,CLR,0.00,0.00,VWS V14.01,2013-03-13 02:50:00,
2013-03-12 21:55:00,46.8,26.0,30.34,NNE,18,2.0,7.0,44,0.00,,CLR,0.00,0.00,VWS V14.01,2013-03-13 02:55:00,
2013-03-12 22:00:00,46.7,25.4,30.35,NNE,20,2.0,5.0,43,0.00,,CLR,0.00,0.00,VWS V14.01,2013-03-13 03:00:00,
2013-03-12 22:05:00,46.4,25.7,30.35,NNE,19,0.0,4.0,44,0.00,,CLR,0.00,0.00,VWS V14.01,2013-03-13 03:05:00,
2013-03-12 22:10:00,46.2,25.5,30.35,NNE,19,0.0,0.0,44,0.00,,CLR,0.00,0.00,VWS V14.01,2013-03-13 03:10:00,
2013-03-12 22:15:00,45.9,25.2,30.35,NNE,29,0.0,5.0,44,0.00,,CLR,0.00,0.00,VWS V14.01,2013-03-13 03:15:00,
2013-03-12 22:20:00,45.8,25.1,30.35,NNE,28,3.0,5.0,44,0.00,,CLR,0.00,0.00,VWS V14.01,2013-03-13 03:20:00,
2013-03-12 22:25:00,45.6,25.0,30.35,NNE,28,0.0,2.0,44,0.00,,CLR,0.00,0.00,VWS V14.01,2013-03-13 03:25:00,
2013-03-12 22:30:00,45.3,24.7,30.36,NNE,28,0.0,4.0,44,0.00,,CLR,0.00,0.00,VWS V14.01,2013-03-13 03:30:00,
2013-03-12 22:35:00,45.2,24.6,30.36,NNE,28,0.0,0.0,44,0.00,,CLR,0.00,0.00,VWS V14.01,2013-03-13 03:35:00,
2013-03-12 22:40:00,45.0,24.4,30.36,NNE,28,0.0,0.0,44,0.00,,CLR,0.00,0.00,VWS V14.01,2013-03-13 03:40:00,
2013-03-12 22:45:00,44.7,23.6,30.36,NNE,22,0.0,6.0,43,0.00,,CLR,0.00,0.00,VWS V14.01,2013-03-13 03:45:00,
2013-03-12 22:50:00,44.6,23.5,30.36,NNE,22,0.0,2.0,43,0.00,,CLR,0.00,0.00,VWS V14.01,2013-03-13 03:50:00,
2013-03-12 22:55:00,44.5,23.4,30.36,NNE,23,0.0,2.0,43,0.00,,CLR,0.00,0.00,VWS V14.01,2013-03-13 03:55:00,
2013-03-12 23:00:00,44.2,23.1,30.37,NNE,24,0.0,3.0,43,0.00,,CLR,0.00,0.00,VWS V14.01,2013-03-13 04:00:00,
2013-03-12 23:05:00,44.0,22.4,30.37,NNE,23,0.0,0.0,42,0.00,,CLR,0.00,0.00,VWS V14.01,2013-03-13 04:05:00,
2013-03-12 23:10:00,43.9,22.3,30.37,NNE,23,0.0,0.0,42,0.00,,CLR,0.00,0.00,VWS V14.01,2013-03-13 04:10:00,
2013-03-12 23:15:00,43.7,22.1,30.37,NNE,23,0.0,0.0,42,0.00,,CLR,0.00,0.00,VWS V14.01,2013-03-13 04:15:00,
2013-03-12 23:20:00,43.6,22.6,30.37,NNE,23,0.0,0.0,43,0.00,,CLR,0.00,0.00,VWS V14.01,2013-03-13 04:20:00,
2013-03-12 23:25:00,43.4,22.4,30.37,NNE,23,0.0,0.0,43,0.00,,CLR,0.00,0.00,VWS V14.01,2013-03-13 04:25:00,
2013-03-12 23:30:00,43.3,22.9,30.37,NNE,23,0.0,0.0,44,0.00,,CLR,0.00,0.00,VWS V14.01,2013-03-13 04:30:00,
2013-03-12 23:35:00,43.1,22.7,30.37,NNE,23,0.0,0.0,44,0.00,,CLR,0.00,0.00,VWS V14.01,2013-03-13 04:35:00,
2013-03-12 23:40:00,43.0,23.1,30.37,NNE,23,0.0,0.0,45,0.00,,CLR,0.00,0.00,VWS V14.01,2013-03-13 04:40:00,
2013-03-12 23:45:00,42.7,22.9,30.38,NNE,23,0.0,0.0,45,0.00,,CLR,0.00,0.00,VWS V14.01,2013-03-13 04:45:00,
2013-03-12 23:50:00,42.6,23.3,30.38,NNE,23,0.0,0.0,46,0.00,,CLR,0.00,0.00,VWS V14.01,2013-03-13 04:50:00,
2013-03-12 23:55:00,42.3,23.0,30.38,NNE,23,0.0,0.0,46,0.00,,CLR,0.00,0.00,VWS V14.01,2013-03-13 04:55:00,